createdAt,value
2022-07-31T00:00:55.201Z,3.40
2022-07-31T00:01:55.185Z,3.00
2022-07-31T00:02:55.161Z,3.40
2022-07-31T00:03:55.246Z,2.90
2022-07-31T00:04:55.119Z,3.10
2022-07-31T00:05:55.107Z,3.00
2022-07-31T00:06:55.078Z,3.10
2022-07-31T00:07:55.057Z,3.10
2022-07-31T00:08:55.035Z,3.20
2022-07-31T00:09:55.018Z,3.50
2022-07-31T00:10:54.994Z,3.00
2022-07-31T00:11:54.974Z,3.30
2022-07-31T00:12:54.952Z,3.30
2022-07-31T00:13:57.554Z,3.30
2022-07-31T00:14:54.913Z,2.90
2022-07-31T00:15:54.893Z,3.10
2022-07-31T00:16:54.869Z,2.90
2022-07-31T00:17:54.850Z,2.90
2022-07-31T00:18:54.827Z,3.10
2022-07-31T00:19:54.807Z,3.30
2022-07-31T00:20:54.785Z,3.10
2022-07-31T00:21:54.765Z,3.20
2022-07-31T00:22:54.744Z,3.10
2022-07-31T00:23:54.722Z,3.20
2022-07-31T00:24:54.701Z,3.20
2022-07-31T00:25:54.681Z,3.50
2022-07-31T00:26:54.660Z,3.40
2022-07-31T00:27:54.639Z,3.30
2022-07-31T00:28:54.618Z,3.20
2022-07-31T00:29:54.597Z,3.00
2022-07-31T00:30:54.580Z,3.30
2022-07-31T00:31:54.554Z,3.00
2022-07-31T00:32:54.535Z,3.50
2022-07-31T00:33:54.514Z,3.30
2022-07-31T00:34:54.493Z,3.30
2022-07-31T00:35:54.474Z,3.50
2022-07-31T00:36:54.450Z,3.30
2022-07-31T00:38:02.150Z,3.30
2022-07-31T00:38:54.408Z,3.70
2022-07-31T00:39:54.388Z,2.90
2022-07-31T00:40:54.367Z,3.40
2022-07-31T00:41:54.344Z,3.20
2022-07-31T00:42:54.323Z,3.30
2022-07-31T00:43:54.302Z,3.30
2022-07-31T00:44:54.282Z,3.80
2022-07-31T00:45:58.567Z,3.40
2022-07-31T00:46:54.239Z,3.50
2022-07-31T00:47:55.879Z,3.80
2022-07-31T00:48:54.263Z,3.60
2022-07-31T00:49:54.176Z,3.70
2022-07-31T00:50:54.154Z,3.30
2022-07-31T00:51:54.133Z,3.30
2022-07-31T00:52:54.111Z,3.80
2022-07-31T00:53:54.091Z,3.50
2022-07-31T00:54:54.069Z,3.50
2022-07-31T00:55:54.049Z,3.40
2022-07-31T00:56:54.027Z,3.90
2022-07-31T00:57:54.014Z,3.80
2022-07-31T00:58:53.984Z,3.40
2022-07-31T00:59:53.967Z,3.70
2022-07-31T01:00:54.014Z,3.70
2022-07-31T01:01:53.921Z,3.80
2022-07-31T01:02:53.899Z,3.50
2022-07-31T01:03:53.882Z,3.70
2022-07-31T01:04:53.856Z,3.50
2022-07-31T01:05:53.837Z,3.60
2022-07-31T01:06:53.814Z,3.40
2022-07-31T01:07:53.793Z,3.50
2022-07-31T01:08:53.771Z,3.50
2022-07-31T01:09:53.765Z,3.90
2022-07-31T01:10:53.729Z,3.60
2022-07-31T01:11:53.708Z,3.60
2022-07-31T01:12:54.363Z,3.70
2022-07-31T01:13:53.668Z,3.80
2022-07-31T01:14:53.643Z,3.80
2022-07-31T01:15:53.623Z,3.60
2022-07-31T01:16:53.601Z,3.90
2022-07-31T01:17:53.581Z,4.20
2022-07-31T01:18:53.558Z,3.50
2022-07-31T01:19:53.542Z,4.10
2022-07-31T01:20:53.517Z,3.90
2022-07-31T01:21:53.495Z,3.90
2022-07-31T01:22:53.473Z,3.80
2022-07-31T01:23:55.223Z,3.90
2022-07-31T01:24:53.430Z,3.70
2022-07-31T01:25:53.409Z,3.60
2022-07-31T01:26:53.388Z,3.60
2022-07-31T01:27:53.365Z,3.80
2022-07-31T01:28:53.345Z,3.80
2022-07-31T01:29:53.326Z,3.90
2022-07-31T01:31:10.602Z,3.60
2022-07-31T01:31:53.280Z,3.90
2022-07-31T01:32:53.258Z,4.10
2022-07-31T01:33:53.239Z,3.80
2022-07-31T01:34:53.216Z,3.80
2022-07-31T01:35:53.196Z,3.70
2022-07-31T01:36:53.173Z,3.80
2022-07-31T01:37:53.153Z,3.80
2022-07-31T01:38:53.130Z,3.70
2022-07-31T01:39:53.109Z,3.50
2022-07-31T01:40:53.087Z,4.10
2022-07-31T01:41:53.066Z,3.50
2022-07-31T01:42:53.044Z,3.90
2022-07-31T01:43:53.023Z,3.70
2022-07-31T01:44:53.004Z,3.80
2022-07-31T01:45:52.980Z,3.90
2022-07-31T01:46:52.958Z,4.00
2022-07-31T01:47:52.943Z,4.00
2022-07-31T01:48:52.970Z,3.70
2022-07-31T01:49:52.894Z,4.00
2022-07-31T01:50:52.872Z,3.70
2022-07-31T01:51:52.850Z,3.90
2022-07-31T01:52:52.827Z,3.90
2022-07-31T01:53:52.809Z,3.90
2022-07-31T01:54:52.786Z,3.60
2022-07-31T01:56:02.194Z,4.00
2022-07-31T01:56:52.742Z,3.80
2022-07-31T01:57:52.721Z,3.70
2022-07-31T01:58:52.700Z,3.80
2022-07-31T01:59:54.741Z,4.40
2022-07-31T02:00:52.745Z,4.90
2022-07-31T02:01:52.634Z,4.40
2022-07-31T02:02:54.475Z,4.40
2022-07-31T02:03:56.346Z,4.10
2022-07-31T02:04:52.568Z,4.00
2022-07-31T02:05:52.547Z,4.20
2022-07-31T02:06:52.526Z,4.10
2022-07-31T02:07:52.503Z,4.30
2022-07-31T02:08:52.480Z,3.90
2022-07-31T02:09:58.827Z,3.80
2022-07-31T02:10:52.438Z,4.20
2022-07-31T02:11:54.732Z,4.20
2022-07-31T02:12:52.394Z,4.00
2022-07-31T02:13:52.374Z,3.90
2022-07-31T02:14:52.351Z,4.10
2022-07-31T02:15:52.328Z,3.80
2022-07-31T02:16:52.312Z,4.00
2022-07-31T02:17:52.284Z,3.90
2022-07-31T02:18:52.263Z,4.00
2022-07-31T02:19:59.866Z,4.20
2022-07-31T02:20:52.218Z,3.50
2022-07-31T02:21:52.198Z,4.00
2022-07-31T02:22:52.177Z,4.00
2022-07-31T02:23:52.152Z,4.10
2022-07-31T02:24:52.131Z,4.20
2022-07-31T02:25:52.109Z,3.80
2022-07-31T02:26:52.088Z,3.90
2022-07-31T02:27:53.921Z,3.70
2022-07-31T02:28:52.042Z,3.70
2022-07-31T02:29:52.023Z,3.90
2022-07-31T02:30:52.008Z,3.80
2022-07-31T02:32:11.571Z,3.90
2022-07-31T02:32:51.956Z,3.90
2022-07-31T02:33:51.934Z,4.30
2022-07-31T02:34:51.911Z,3.90
2022-07-31T02:35:52.140Z,3.90
2022-07-31T02:36:51.868Z,4.00
2022-07-31T02:37:51.846Z,4.00
2022-07-31T02:38:51.823Z,4.30
2022-07-31T02:39:51.803Z,3.90
2022-07-31T02:40:51.779Z,3.90
2022-07-31T02:41:51.759Z,4.00
2022-07-31T02:42:51.736Z,4.10
2022-07-31T02:43:51.715Z,3.70
2022-07-31T02:44:51.692Z,4.00
2022-07-31T02:45:51.671Z,4.20
2022-07-31T02:46:51.655Z,3.90
2022-07-31T02:47:51.633Z,3.90
2022-07-31T02:48:51.641Z,4.20
2022-07-31T02:49:51.585Z,4.00
2022-07-31T02:50:51.568Z,4.20
2022-07-31T02:51:51.542Z,4.00
2022-07-31T02:52:51.518Z,4.00
2022-07-31T02:53:51.497Z,3.80
2022-07-31T02:54:51.475Z,4.00
2022-07-31T02:55:51.453Z,4.30
2022-07-31T02:56:51.435Z,4.00
2022-07-31T02:57:51.410Z,3.80
2022-07-31T02:58:51.392Z,4.00
2022-07-31T02:59:51.366Z,3.70
2022-07-31T03:00:51.431Z,3.50
2022-07-31T03:01:51.324Z,3.80
2022-07-31T03:02:51.301Z,3.70
2022-07-31T03:03:51.283Z,3.90
2022-07-31T03:04:51.257Z,3.70
2022-07-31T03:05:51.237Z,3.50
2022-07-31T03:06:51.215Z,3.80
2022-07-31T03:07:51.192Z,3.60
2022-07-31T03:08:51.170Z,3.40
2022-07-31T03:09:51.150Z,3.60
2022-07-31T03:10:51.127Z,3.40
2022-07-31T03:11:51.106Z,4.00
2022-07-31T03:12:51.091Z,3.60
2022-07-31T03:13:51.063Z,3.60
2022-07-31T03:14:51.041Z,4.00
2022-07-31T03:15:51.218Z,3.50
2022-07-31T03:16:50.995Z,3.40
2022-07-31T03:17:50.975Z,3.10
2022-07-31T03:18:50.952Z,3.80
2022-07-31T03:19:50.930Z,3.60
2022-07-31T03:20:50.908Z,3.70
2022-07-31T03:21:50.888Z,3.80
2022-07-31T03:22:50.864Z,3.40
2022-07-31T03:23:50.848Z,3.60
2022-07-31T03:24:50.823Z,3.70
2022-07-31T03:25:50.801Z,3.60
2022-07-31T03:26:50.777Z,3.90
2022-07-31T03:27:55.411Z,3.30
2022-07-31T03:28:50.734Z,3.60
2022-07-31T03:29:50.717Z,3.50
2022-07-31T03:30:50.691Z,3.70
2022-07-31T03:31:50.669Z,3.50
2022-07-31T03:32:50.651Z,3.40
2022-07-31T03:33:50.624Z,3.80
2022-07-31T03:34:50.604Z,3.90
2022-07-31T03:35:50.580Z,3.60
2022-07-31T03:36:50.560Z,3.40
2022-07-31T03:37:50.537Z,3.40
2022-07-31T03:38:50.902Z,3.70
2022-07-31T03:39:50.496Z,3.60
2022-07-31T03:40:50.475Z,3.60
2022-07-31T03:41:50.450Z,3.70
2022-07-31T03:42:50.429Z,3.40
2022-07-31T03:43:50.407Z,3.60
2022-07-31T03:44:50.385Z,4.00
2022-07-31T03:45:50.362Z,3.70
2022-07-31T03:46:50.341Z,3.70
2022-07-31T03:47:50.318Z,3.90
2022-07-31T03:48:50.323Z,3.50
2022-07-31T03:49:50.275Z,3.90
2022-07-31T03:50:50.254Z,3.80
2022-07-31T03:51:50.230Z,3.40
2022-07-31T03:52:50.210Z,3.70
2022-07-31T03:53:50.201Z,3.80
2022-07-31T03:54:50.166Z,3.80
2022-07-31T03:55:50.143Z,3.80
2022-07-31T03:56:50.122Z,3.60
2022-07-31T03:57:50.099Z,3.70
2022-07-31T03:58:52.708Z,3.60
2022-07-31T03:59:50.054Z,4.00
2022-07-31T04:00:50.033Z,3.80
2022-07-31T04:01:56.907Z,3.40
2022-07-31T04:02:50.026Z,3.60
2022-07-31T04:03:49.968Z,3.90
2022-07-31T04:04:49.945Z,3.70
2022-07-31T04:05:49.924Z,3.70
2022-07-31T04:06:49.902Z,3.50
2022-07-31T04:07:49.878Z,3.70
2022-07-31T04:08:49.857Z,3.60
2022-07-31T04:09:49.834Z,3.70
2022-07-31T04:10:49.813Z,3.60
2022-07-31T04:11:49.792Z,3.60
2022-07-31T04:12:49.769Z,3.60
2022-07-31T04:13:49.745Z,3.60
2022-07-31T04:14:49.727Z,3.70
2022-07-31T04:15:49.700Z,3.70
2022-07-31T04:16:49.679Z,3.30
2022-07-31T04:17:49.657Z,3.90
2022-07-31T04:18:50.975Z,3.40
2022-07-31T04:19:49.634Z,3.70
2022-07-31T04:20:49.592Z,3.80
2022-07-31T04:21:49.568Z,3.80
2022-07-31T04:22:49.546Z,3.80
2022-07-31T04:23:50.054Z,3.80
2022-07-31T04:24:49.501Z,4.00
2022-07-31T04:25:49.478Z,3.60
2022-07-31T04:26:49.463Z,3.80
2022-07-31T04:27:49.433Z,3.60
2022-07-31T04:28:49.413Z,3.70
2022-07-31T04:29:49.390Z,3.80
2022-07-31T04:30:49.369Z,3.60
2022-07-31T04:31:49.344Z,3.60
2022-07-31T04:32:49.323Z,3.90
2022-07-31T04:33:52.223Z,3.80
2022-07-31T04:34:49.280Z,3.70
2022-07-31T04:35:49.255Z,3.90
2022-07-31T04:36:49.234Z,4.00
2022-07-31T04:37:49.211Z,3.60
2022-07-31T04:38:49.189Z,3.80
2022-07-31T04:39:49.165Z,3.80
2022-07-31T04:40:49.145Z,4.10
2022-07-31T04:41:49.121Z,3.40
2022-07-31T04:42:49.100Z,3.90
2022-07-31T04:43:49.077Z,3.40
2022-07-31T04:44:49.062Z,3.90
2022-07-31T04:45:49.032Z,3.80
2022-07-31T04:46:49.011Z,4.10
2022-07-31T04:47:48.986Z,3.70
2022-07-31T04:48:49.193Z,3.60
2022-07-31T04:49:48.943Z,3.50
2022-07-31T04:50:48.924Z,3.50
2022-07-31T04:51:48.898Z,3.70
2022-07-31T04:52:48.877Z,3.40
2022-07-31T04:53:48.854Z,3.90
2022-07-31T04:54:48.832Z,3.50
2022-07-31T04:55:48.809Z,3.80
2022-07-31T04:56:48.787Z,3.70
2022-07-31T04:57:48.765Z,3.40
2022-07-31T04:58:48.744Z,3.50
2022-07-31T04:59:58.548Z,3.50
2022-07-31T05:00:48.698Z,3.70
2022-07-31T05:01:48.831Z,3.70
2022-07-31T05:02:48.654Z,3.60
2022-07-31T05:03:48.630Z,3.30
2022-07-31T05:04:52.554Z,3.30
2022-07-31T05:05:48.587Z,3.40
2022-07-31T05:06:48.566Z,3.60
2022-07-31T05:07:48.542Z,3.50
2022-07-31T05:08:48.521Z,3.50
2022-07-31T05:09:48.499Z,3.50
2022-07-31T05:10:48.477Z,3.20
2022-07-31T05:11:48.453Z,3.20
2022-07-31T05:12:48.433Z,3.20
2022-07-31T05:13:48.410Z,3.40
2022-07-31T05:14:48.390Z,3.00
2022-07-31T05:15:48.364Z,3.40
2022-07-31T05:16:48.343Z,3.20
2022-07-31T05:17:48.322Z,3.30
2022-07-31T05:18:48.301Z,3.40
2022-07-31T05:19:48.279Z,3.20
2022-07-31T05:20:48.254Z,3.10
2022-07-31T05:22:03.866Z,3.20
2022-07-31T05:22:48.213Z,3.40
2022-07-31T05:23:48.188Z,3.20
2022-07-31T05:24:48.167Z,3.30
2022-07-31T05:25:48.152Z,3.00
2022-07-31T05:26:48.123Z,3.30
2022-07-31T05:27:50.070Z,3.20
2022-07-31T05:28:48.079Z,3.30
2022-07-31T05:29:48.056Z,3.40
2022-07-31T05:30:48.036Z,3.20
2022-07-31T05:31:59.689Z,3.50
2022-07-31T05:32:47.993Z,3.20
2022-07-31T05:33:47.972Z,3.20
2022-07-31T05:34:47.948Z,3.30
2022-07-31T05:35:47.924Z,3.20
2022-07-31T05:36:47.903Z,3.30
2022-07-31T05:37:47.881Z,3.00
2022-07-31T05:38:47.860Z,3.20
2022-07-31T05:39:47.837Z,3.20
2022-07-31T05:40:47.816Z,3.00
2022-07-31T05:41:47.793Z,2.90
2022-07-31T05:42:47.773Z,3.00
2022-07-31T05:43:47.750Z,3.20
2022-07-31T05:44:47.732Z,3.00
2022-07-31T05:45:47.706Z,3.40
2022-07-31T05:46:47.687Z,3.20
2022-07-31T05:47:47.661Z,3.20
2022-07-31T05:48:47.719Z,3.20
2022-07-31T05:49:47.621Z,3.20
2022-07-31T05:50:47.598Z,3.00
2022-07-31T05:51:47.577Z,3.40
2022-07-31T05:52:47.554Z,3.60
2022-07-31T05:53:47.532Z,3.40
2022-07-31T05:54:47.514Z,3.40
2022-07-31T05:55:47.488Z,3.30
2022-07-31T05:56:47.467Z,3.30
2022-07-31T05:57:47.445Z,3.40
2022-07-31T05:58:48.393Z,3.30
2022-07-31T05:59:47.401Z,3.20
2022-07-31T06:00:47.381Z,3.10
2022-07-31T06:01:47.475Z,3.70
2022-07-31T06:02:47.338Z,3.90
2022-07-31T06:03:52.067Z,3.60
2022-07-31T06:04:47.294Z,3.80
2022-07-31T06:05:47.274Z,3.80
2022-07-31T06:06:47.251Z,3.10
2022-07-31T06:07:52.004Z,3.40
2022-07-31T06:08:47.208Z,3.60
2022-07-31T06:09:47.186Z,3.70
2022-07-31T06:10:47.165Z,3.50
2022-07-31T06:11:47.144Z,3.50
2022-07-31T06:12:47.123Z,3.70
2022-07-31T06:13:47.107Z,3.60
2022-07-31T06:14:47.079Z,3.70
2022-07-31T06:15:49.317Z,3.80
2022-07-31T06:16:47.036Z,3.50
2022-07-31T06:17:47.035Z,3.60
2022-07-31T06:18:46.994Z,3.30
2022-07-31T06:19:46.971Z,3.80
2022-07-31T06:20:46.955Z,3.50
2022-07-31T06:21:46.928Z,3.50
2022-07-31T06:22:46.924Z,3.30
2022-07-31T06:23:46.891Z,3.70
2022-07-31T06:24:46.872Z,3.30
2022-07-31T06:25:46.849Z,3.20
2022-07-31T06:26:46.833Z,3.40
2022-07-31T06:27:50.825Z,3.40
2022-07-31T06:28:48.474Z,3.20
2022-07-31T06:29:46.761Z,3.20
2022-07-31T06:30:46.743Z,3.40
2022-07-31T06:31:46.721Z,3.30
2022-07-31T06:32:46.699Z,3.30
2022-07-31T06:33:48.366Z,3.80
2022-07-31T06:34:46.658Z,3.50
2022-07-31T06:35:46.636Z,3.40
2022-07-31T06:36:46.616Z,3.60
2022-07-31T06:37:46.594Z,3.30
2022-07-31T06:38:46.577Z,3.20
2022-07-31T06:39:54.102Z,3.70
2022-07-31T06:40:46.535Z,3.40
2022-07-31T06:41:46.514Z,3.50
2022-07-31T06:42:46.497Z,3.40
2022-07-31T06:43:46.475Z,3.20
2022-07-31T06:44:46.644Z,3.50
2022-07-31T06:45:52.194Z,3.40
2022-07-31T06:46:49.319Z,3.50
2022-07-31T06:47:46.393Z,3.50
2022-07-31T06:48:46.459Z,3.40
2022-07-31T06:49:46.459Z,3.40
2022-07-31T06:50:46.334Z,3.60
2022-07-31T06:51:46.312Z,3.70
2022-07-31T06:52:46.295Z,3.50
2022-07-31T06:53:46.273Z,3.90
2022-07-31T06:54:46.254Z,3.50
2022-07-31T06:55:46.233Z,3.70
2022-07-31T06:56:46.215Z,3.70
2022-07-31T06:57:46.193Z,3.70
2022-07-31T06:58:46.174Z,3.30
2022-07-31T06:59:46.153Z,3.80
2022-07-31T07:00:46.133Z,3.70
2022-07-31T07:01:46.172Z,3.80
2022-07-31T07:02:46.199Z,3.50
2022-07-31T07:03:46.071Z,3.60
2022-07-31T07:04:56.251Z,3.50
2022-07-31T07:05:46.032Z,3.50
2022-07-31T07:06:46.014Z,3.20
2022-07-31T07:07:46.041Z,3.40
2022-07-31T07:08:45.973Z,3.50
2022-07-31T07:09:45.953Z,3.40
2022-07-31T07:10:45.933Z,3.40
2022-07-31T07:11:45.916Z,3.40
2022-07-31T07:12:45.996Z,3.50
2022-07-31T07:13:46.991Z,3.50
2022-07-31T07:14:45.852Z,3.80
2022-07-31T07:15:45.829Z,3.40
2022-07-31T07:16:45.811Z,3.50
2022-07-31T07:17:45.789Z,3.10
2022-07-31T07:18:45.771Z,3.60
2022-07-31T07:19:45.748Z,3.20
2022-07-31T07:20:45.731Z,3.20
2022-07-31T07:21:45.711Z,3.10
2022-07-31T07:22:45.691Z,3.10
2022-07-31T07:23:45.667Z,3.60
2022-07-31T07:24:45.648Z,3.80
2022-07-31T07:25:45.630Z,3.40
2022-07-31T07:26:45.608Z,3.30
2022-07-31T07:27:45.586Z,3.30
2022-07-31T07:28:45.567Z,3.70
2022-07-31T07:29:45.546Z,3.50
2022-07-31T07:30:45.527Z,3.30
2022-07-31T07:31:45.505Z,3.30
2022-07-31T07:32:45.488Z,2.90
2022-07-31T07:33:45.465Z,3.20
2022-07-31T07:34:45.448Z,3.50
2022-07-31T07:35:45.424Z,3.00
2022-07-31T07:36:45.405Z,3.30
2022-07-31T07:37:45.384Z,3.30
2022-07-31T07:38:45.365Z,3.50
2022-07-31T07:39:45.343Z,3.20
2022-07-31T07:40:45.325Z,3.10
2022-07-31T07:41:45.302Z,3.30
2022-07-31T07:42:45.285Z,3.30
2022-07-31T07:43:45.742Z,3.40
2022-07-31T07:44:45.243Z,3.30
2022-07-31T07:45:45.221Z,3.20
2022-07-31T07:46:45.203Z,3.20
2022-07-31T07:48:05.794Z,3.30
2022-07-31T07:48:45.206Z,3.10
2022-07-31T07:49:45.142Z,3.20
2022-07-31T07:50:45.120Z,3.10
2022-07-31T07:51:59.102Z,3.30
2022-07-31T07:52:45.080Z,3.10
2022-07-31T07:53:45.070Z,3.20
2022-07-31T07:54:45.042Z,3.20
2022-07-31T07:55:45.020Z,3.30
2022-07-31T07:56:44.998Z,3.20
2022-07-31T07:57:44.980Z,3.20
2022-07-31T07:58:44.958Z,3.20
2022-07-31T07:59:44.938Z,3.10
2022-07-31T08:00:44.964Z,3.30
2022-07-31T08:01:44.906Z,3.20
2022-07-31T08:03:02.790Z,3.30
2022-07-31T08:03:49.687Z,3.10
2022-07-31T08:04:47.590Z,3.20
2022-07-31T08:05:44.825Z,3.10
2022-07-31T08:06:44.797Z,3.00
2022-07-31T08:07:44.776Z,3.00
2022-07-31T08:08:44.755Z,3.00
2022-07-31T08:09:44.737Z,3.10
2022-07-31T08:10:44.715Z,3.10
2022-07-31T08:11:44.699Z,2.90
2022-07-31T08:12:44.675Z,3.30
2022-07-31T08:13:49.718Z,2.80
2022-07-31T08:14:44.636Z,3.30
2022-07-31T08:15:44.615Z,3.20
2022-07-31T08:16:44.595Z,3.20
2022-07-31T08:17:44.576Z,2.90
2022-07-31T08:18:44.555Z,2.90
2022-07-31T08:19:48.247Z,3.10
2022-07-31T08:20:44.517Z,3.10
2022-07-31T08:21:44.497Z,2.60
2022-07-31T08:22:44.475Z,2.90
2022-07-31T08:23:44.456Z,3.10
2022-07-31T08:24:44.435Z,3.10
2022-07-31T08:25:44.416Z,2.90
2022-07-31T08:26:44.396Z,2.90
2022-07-31T08:27:44.379Z,2.70
2022-07-31T08:28:49.682Z,2.80
2022-07-31T08:29:44.338Z,2.80
2022-07-31T08:30:44.317Z,3.10
2022-07-31T08:31:49.324Z,2.90
2022-07-31T08:32:44.276Z,3.20
2022-07-31T08:33:44.258Z,3.20
2022-07-31T08:34:44.239Z,2.90
2022-07-31T08:35:44.761Z,3.20
2022-07-31T08:36:44.198Z,3.00
2022-07-31T08:37:51.032Z,2.80
2022-07-31T08:38:44.162Z,2.80
2022-07-31T08:39:44.141Z,2.70
2022-07-31T08:40:44.120Z,2.90
2022-07-31T08:41:44.102Z,2.70
2022-07-31T08:42:44.082Z,2.90
2022-07-31T08:44:00.010Z,2.90
2022-07-31T08:44:44.043Z,3.00
2022-07-31T08:45:44.025Z,3.00
2022-07-31T08:46:44.005Z,2.80
2022-07-31T08:47:43.986Z,2.60
2022-07-31T08:48:43.969Z,2.60
2022-07-31T08:49:43.948Z,2.80
2022-07-31T08:50:43.928Z,2.40
2022-07-31T08:51:51.110Z,2.40
2022-07-31T08:52:43.889Z,2.40
2022-07-31T08:53:43.877Z,2.60
2022-07-31T08:54:43.850Z,2.80
2022-07-31T08:55:56.089Z,2.60
2022-07-31T08:56:43.812Z,2.50
2022-07-31T08:57:43.795Z,2.40
2022-07-31T08:58:43.775Z,2.50
2022-07-31T08:59:43.755Z,2.40
2022-07-31T09:00:43.751Z,2.20
2022-07-31T09:01:43.824Z,2.30
2022-07-31T09:02:43.699Z,2.50
2022-07-31T09:03:43.685Z,2.50
2022-07-31T09:04:43.660Z,2.50
2022-07-31T09:05:43.644Z,2.60
2022-07-31T09:06:43.624Z,2.40
2022-07-31T09:07:43.605Z,2.70
2022-07-31T09:08:43.584Z,2.40
2022-07-31T09:09:50.908Z,2.50
2022-07-31T09:10:49.434Z,2.40
2022-07-31T09:11:43.530Z,2.50
2022-07-31T09:12:43.510Z,2.40
2022-07-31T09:13:43.491Z,2.60
2022-07-31T09:14:43.473Z,2.40
2022-07-31T09:15:43.456Z,2.30
2022-07-31T09:16:43.434Z,2.50
2022-07-31T09:17:53.835Z,2.40
2022-07-31T09:18:43.396Z,2.50
2022-07-31T09:19:54.209Z,2.30
2022-07-31T09:20:43.361Z,2.70
2022-07-31T09:21:43.342Z,2.50
2022-07-31T09:22:43.322Z,2.70
2022-07-31T09:23:43.303Z,2.40
2022-07-31T09:24:43.288Z,2.30
2022-07-31T09:25:43.267Z,2.40
2022-07-31T09:26:43.247Z,2.20
2022-07-31T09:27:43.230Z,2.40
2022-07-31T09:28:43.209Z,2.30
2022-07-31T09:29:43.195Z,2.20
2022-07-31T09:30:56.094Z,2.40
2022-07-31T09:31:43.154Z,2.40
2022-07-31T09:32:43.140Z,2.30
2022-07-31T09:33:45.795Z,2.50
2022-07-31T09:34:43.098Z,2.40
2022-07-31T09:35:43.080Z,2.50
2022-07-31T09:36:43.060Z,2.40
2022-07-31T09:37:43.042Z,2.30
2022-07-31T09:38:43.025Z,2.20
2022-07-31T09:39:52.595Z,2.20
2022-07-31T09:40:55.387Z,2.40
2022-07-31T09:41:56.217Z,2.50
2022-07-31T09:42:45.905Z,2.40
2022-07-31T09:43:51.481Z,2.30
2022-07-31T09:44:42.911Z,2.50
2022-07-31T09:45:48.035Z,2.70
2022-07-31T09:46:42.874Z,2.70
2022-07-31T09:47:42.856Z,2.30
2022-07-31T09:48:44.083Z,2.40
2022-07-31T09:49:42.819Z,2.50
2022-07-31T09:50:42.802Z,2.60
2022-07-31T09:51:42.786Z,2.40
2022-07-31T09:52:42.763Z,2.50
2022-07-31T09:53:43.752Z,2.40
2022-07-31T09:54:42.727Z,2.50
2022-07-31T09:55:42.708Z,2.40
2022-07-31T09:56:42.689Z,2.30
2022-07-31T09:57:42.671Z,2.50
2022-07-31T09:58:42.652Z,2.10
2022-07-31T09:59:42.639Z,2.40
2022-07-31T10:00:42.684Z,2.20
2022-07-31T10:01:42.598Z,2.20
2022-07-31T10:02:42.579Z,2.10
2022-07-31T10:03:42.562Z,2.20
2022-07-31T10:04:42.542Z,2.10
2022-07-31T10:05:42.527Z,2.40
2022-07-31T10:06:42.506Z,2.50
2022-07-31T10:07:42.489Z,2.20
2022-07-31T10:08:42.468Z,2.30
2022-07-31T10:09:42.452Z,2.50
2022-07-31T10:10:42.433Z,2.20
2022-07-31T10:11:42.415Z,2.30
2022-07-31T10:12:42.401Z,2.40
2022-07-31T10:13:42.550Z,2.30
2022-07-31T10:14:42.361Z,2.30
2022-07-31T10:15:42.343Z,2.20
2022-07-31T10:16:42.324Z,2.20
2022-07-31T10:17:42.307Z,2.30
2022-07-31T10:18:44.567Z,2.30
2022-07-31T10:19:42.273Z,2.20
2022-07-31T10:20:42.253Z,2.10
2022-07-31T10:21:42.236Z,2.40
2022-07-31T10:22:42.233Z,2.30
2022-07-31T10:23:42.200Z,2.30
2022-07-31T10:24:42.181Z,2.30
2022-07-31T10:25:42.164Z,2.20
2022-07-31T10:27:42.133Z,2.10
2022-07-31T10:28:42.111Z,2.40
2022-07-31T10:29:42.092Z,2.30
2022-07-31T10:30:42.075Z,2.10
2022-07-31T10:31:42.059Z,2.20
2022-07-31T10:32:42.086Z,2.30
2022-07-31T10:33:44.095Z,2.40
2022-07-31T10:34:42.005Z,2.40
2022-07-31T10:35:41.989Z,2.40
2022-07-31T10:36:41.969Z,2.20
2022-07-31T10:37:41.953Z,2.20
2022-07-31T10:38:41.934Z,2.10
2022-07-31T10:39:41.918Z,2.20
2022-07-31T10:40:41.907Z,2.40
2022-07-31T10:41:41.883Z,2.40
2022-07-31T10:42:41.945Z,2.30
2022-07-31T10:43:41.850Z,2.40
2022-07-31T10:44:41.829Z,2.20
2022-07-31T10:45:41.814Z,2.40
2022-07-31T10:46:41.795Z,2.40
2022-07-31T10:47:48.678Z,2.40
2022-07-31T10:48:41.761Z,2.30
2022-07-31T10:49:41.850Z,2.30
2022-07-31T10:50:41.726Z,2.20
2022-07-31T10:51:41.713Z,2.40
2022-07-31T10:52:41.749Z,2.20
2022-07-31T10:53:50.862Z,2.20
2022-07-31T10:54:41.659Z,2.30
2022-07-31T10:55:41.642Z,2.20
2022-07-31T10:56:41.625Z,2.10
2022-07-31T10:57:56.609Z,2.00
2022-07-31T10:58:41.591Z,2.30
2022-07-31T10:59:44.599Z,1.90
2022-07-31T11:00:41.557Z,2.10
2022-07-31T11:01:41.612Z,2.10
2022-07-31T11:02:41.584Z,2.00
2022-07-31T11:03:41.508Z,2.30
2022-07-31T11:04:41.491Z,2.20
2022-07-31T11:06:01.077Z,2.10
2022-07-31T11:06:41.460Z,2.20
2022-07-31T11:07:41.442Z,2.30
2022-07-31T11:08:41.424Z,2.10
2022-07-31T11:09:50.256Z,2.10
2022-07-31T11:10:41.392Z,2.00
2022-07-31T11:11:41.376Z,2.00
2022-07-31T11:12:41.369Z,2.10
2022-07-31T11:13:41.345Z,1.90
2022-07-31T11:14:41.328Z,2.20
2022-07-31T11:15:41.311Z,2.00
2022-07-31T11:16:41.294Z,2.20
2022-07-31T11:18:22.148Z,2.00
2022-07-31T11:18:41.262Z,1.90
2022-07-31T11:19:41.628Z,2.00
2022-07-31T11:20:41.231Z,2.10
2022-07-31T11:21:41.216Z,2.20
2022-07-31T11:22:41.197Z,1.90
2022-07-31T11:23:41.181Z,2.10
2022-07-31T11:24:41.163Z,1.80
2022-07-31T11:25:41.153Z,2.20
2022-07-31T11:26:42.319Z,2.10
2022-07-31T11:27:41.115Z,2.10
2022-07-31T11:28:41.098Z,2.00
2022-07-31T11:30:01.876Z,2.10
2022-07-31T11:30:41.065Z,2.10
2022-07-31T11:31:41.050Z,2.00
2022-07-31T11:32:41.030Z,2.10
2022-07-31T11:33:42.004Z,2.10
2022-07-31T11:34:40.997Z,2.10
2022-07-31T11:35:40.980Z,2.10
2022-07-31T11:36:40.963Z,1.90
2022-07-31T11:37:57.035Z,2.10
2022-07-31T11:38:40.931Z,2.10
2022-07-31T11:39:40.915Z,2.20
2022-07-31T11:40:40.899Z,2.50
2022-07-31T11:41:44.234Z,2.10
2022-07-31T11:42:40.864Z,2.30
2022-07-31T11:43:40.850Z,2.20
2022-07-31T11:44:40.833Z,2.30
2022-07-31T11:45:40.817Z,2.00
2022-07-31T11:46:40.800Z,1.90
2022-07-31T11:48:11.914Z,2.20
2022-07-31T11:48:45.215Z,1.90
2022-07-31T11:49:48.565Z,1.80
2022-07-31T11:50:40.737Z,2.00
2022-07-31T11:51:40.719Z,2.30
2022-07-31T11:52:40.703Z,2.40
2022-07-31T11:53:40.688Z,2.00
2022-07-31T11:54:40.672Z,1.90
2022-07-31T11:55:40.657Z,2.20
2022-07-31T11:56:40.661Z,2.00
2022-07-31T11:57:52.527Z,2.20
2022-07-31T11:58:40.613Z,1.90
2022-07-31T11:59:45.801Z,1.90
2022-07-31T12:00:40.578Z,2.00
2022-07-31T12:01:40.762Z,2.30
2022-07-31T12:02:40.608Z,2.00
2022-07-31T12:03:40.535Z,2.10
2022-07-31T12:04:40.523Z,2.00
2022-07-31T12:05:40.502Z,1.90
2022-07-31T12:06:40.574Z,2.10
2022-07-31T12:07:40.472Z,2.00
2022-07-31T12:08:40.458Z,2.00
2022-07-31T12:10:02.210Z,2.10
2022-07-31T12:10:40.430Z,2.10
2022-07-31T12:11:40.462Z,2.20
2022-07-31T12:12:40.399Z,2.00
2022-07-31T12:13:40.383Z,2.00
2022-07-31T12:14:40.371Z,2.00
2022-07-31T12:15:40.355Z,1.90
2022-07-31T12:16:40.340Z,1.90
2022-07-31T12:17:40.325Z,2.00
2022-07-31T12:18:40.312Z,2.00
2022-07-31T12:19:40.295Z,2.00
2022-07-31T12:20:40.283Z,2.00
2022-07-31T12:21:40.270Z,1.90
2022-07-31T12:22:40.255Z,1.90
2022-07-31T12:23:41.797Z,1.70
2022-07-31T12:24:40.225Z,1.80
2022-07-31T12:25:40.209Z,2.00
2022-07-31T12:26:40.196Z,1.90
2022-07-31T12:27:40.181Z,1.90
2022-07-31T12:28:40.169Z,1.90
2022-07-31T12:29:40.153Z,2.00
2022-07-31T12:30:40.143Z,1.80
2022-07-31T12:31:40.125Z,2.10
2022-07-31T12:32:40.111Z,1.70
2022-07-31T12:33:40.098Z,1.80
2022-07-31T12:34:40.084Z,2.10
2022-07-31T12:35:55.617Z,1.90
2022-07-31T12:36:40.055Z,1.70
2022-07-31T12:37:40.042Z,2.00
2022-07-31T12:38:45.530Z,2.00
2022-07-31T12:39:53.961Z,2.10
2022-07-31T12:40:40.001Z,2.10
2022-07-31T12:41:39.986Z,2.10
2022-07-31T12:42:41.787Z,1.80
2022-07-31T12:43:50.844Z,2.10
2022-07-31T12:44:39.943Z,1.90
2022-07-31T12:45:39.931Z,1.90
2022-07-31T12:46:39.917Z,1.80
2022-07-31T12:47:39.901Z,1.90
2022-07-31T12:48:44.398Z,1.70
2022-07-31T12:49:39.953Z,1.70
2022-07-31T12:50:39.861Z,1.60
2022-07-31T12:51:44.716Z,1.80
2022-07-31T12:52:39.833Z,1.90
2022-07-31T12:53:39.826Z,1.60
2022-07-31T12:54:39.808Z,1.80
2022-07-31T12:55:39.791Z,1.80
2022-07-31T12:56:39.785Z,1.80
2022-07-31T12:57:41.757Z,1.90
2022-07-31T12:58:39.762Z,2.00
2022-07-31T12:59:39.740Z,2.00
2022-07-31T13:00:40.302Z,2.00
2022-07-31T13:01:39.818Z,2.00
2022-07-31T13:02:39.699Z,1.80
2022-07-31T13:03:45.688Z,1.80
2022-07-31T13:04:39.672Z,2.00
2022-07-31T13:05:39.657Z,2.00
2022-07-31T13:06:39.645Z,2.00
2022-07-31T13:07:39.632Z,1.90
2022-07-31T13:08:39.619Z,2.10
2022-07-31T13:09:39.603Z,1.80
2022-07-31T13:10:39.590Z,1.90
2022-07-31T13:11:45.585Z,1.80
2022-07-31T13:12:39.563Z,1.80
2022-07-31T13:13:39.548Z,1.90
2022-07-31T13:14:39.537Z,1.80
2022-07-31T13:15:39.525Z,2.00
2022-07-31T13:16:39.511Z,1.80
2022-07-31T13:17:43.729Z,2.00
2022-07-31T13:18:39.482Z,2.00
2022-07-31T13:19:39.466Z,1.90